sensor_id;sensor_type;location;lat;lon;timestamp;temperature;humidity
9311;DHT22;4694;52.464;13.480;2024-03-23T00:53:59;8.70;99.90
9311;DHT22;4694;52.464;13.480;2024-03-23T00:56:25;8.60;99.90
9311;DHT22;4694;52.464;13.480;2024-03-23T00:58:52;8.60;99.90
9311;DHT22;4694;52.464;13.480;2024-03-23T01:01:17;8.60;99.90
9311;DHT22;4694;52.464;13.480;2024-03-23T01:03:44;8.60;99.90
9311;DHT22;4694;52.464;13.480;2024-03-23T01:06:10;8.60;99.90
9311;DHT22;4694;52.464;13.480;2024-03-23T01:08:38;8.60;99.90
9311;DHT22;4694;52.464;13.480;2024-03-23T01:11:04;8.60;99.90
9311;DHT22;4694;52.464;13.480;2024-03-23T01:13:32;8.60;99.90
9311;DHT22;4694;52.464;13.480;2024-03-23T01:15:58;8.60;99.90
9311;DHT22;4694;52.464;13.480;2024-03-23T01:18:24;8.70;99.90
9311;DHT22;4694;52.464;13.480;2024-03-23T01:20:52;8.70;99.90
9311;DHT22;4694;52.464;13.480;2024-03-23T01:23:18;8.70;99.90
9311;DHT22;4694;52.464;13.480;2024-03-23T01:25:52;8.70;99.90
9311;DHT22;4694;52.464;13.480;2024-03-23T01:28:22;8.70;99.90
9311;DHT22;4694;52.464;13.480;2024-03-23T01:30:49;8.70;99.90
9311;DHT22;4694;52.464;13.480;2024-03-23T01:33:16;8.70;99.90
9311;DHT22;4694;52.464;13.480;2024-03-23T01:35:42;8.60;99.90
9311;DHT22;4694;52.464;13.480;2024-03-23T01:38:09;8.60;99.90
9311;DHT22;4694;52.464;13.480;2024-03-23T01:40:35;8.60;99.90
9311;DHT22;4694;52.464;13.480;2024-03-23T01:43:05;8.60;99.90
9311;DHT22;4694;52.464;13.480;2024-03-23T01:45:31;8.60;99.90
9311;DHT22;4694;52.464;13.480;2024-03-23T01:47:58;8.60;99.90
9311;DHT22;4694;52.464;13.480;2024-03-23T01:50:24;8.70;99.90
9311;DHT22;4694;52.464;13.480;2024-03-23T01:52:53;8.70;99.90
9311;DHT22;4694;52.464;13.480;2024-03-23T01:55:19;8.70;99.90
9311;DHT22;4694;52.464;13.480;2024-03-23T01:57:46;8.70;99.90
9311;DHT22;4694;52.464;13.480;2024-03-23T02:00:14;8.70;99.90
9311;DHT22;4694;52.464;13.480;2024-03-23T02:02:42;8.60;99.90
9311;DHT22;4694;52.464;13.480;2024-03-23T02:05:09;8.60;99.90
9311;DHT22;4694;52.464;13.480;2024-03-23T02:07:37;8.60;99.90
9311;DHT22;4694;52.464;13.480;2024-03-23T02:10:03;8.60;99.90
9311;DHT22;4694;52.464;13.480;2024-03-23T02:12:31;8.60;99.90
9311;DHT22;4694;52.464;13.480;2024-03-23T02:14:56;8.60;99.90
9311;DHT22;4694;52.464;13.480;2024-03-23T02:17:28;8.50;99.90
9311;DHT22;4694;52.464;13.480;2024-03-23T02:19:54;8.60;99.90
9311;DHT22;4694;52.464;13.480;2024-03-23T02:22:22;8.60;99.90
9311;DHT22;4694;52.464;13.480;2024-03-23T02:24:49;8.60;99.90
9311;DHT22;4694;52.464;13.480;2024-03-23T02:27:16;8.60;99.90
9311;DHT22;4694;52.464;13.480;2024-03-23T02:29:42;8.60;99.90
9311;DHT22;4694;52.464;13.480;2024-03-23T02:32:11;8.60;99.90
9311;DHT22;4694;52.464;13.480;2024-03-23T02:34:37;8.60;99.90
9311;DHT22;4694;52.464;13.480;2024-03-23T02:37:10;8.60;99.90
9311;DHT22;4694;52.464;13.480;2024-03-23T02:39:36;8.60;99.90
9311;DHT22;4694;52.464;13.480;2024-03-23T02:42:05;8.60;99.90
9311;DHT22;4694;52.464;13.480;2024-03-23T02:44:31;8.60;99.90
9311;DHT22;4694;52.464;13.480;2024-03-23T02:46:58;8.60;99.90
9311;DHT22;4694;52.464;13.480;2024-03-23T02:49:24;8.60;99.90
9311;DHT22;4694;52.464;13.480;2024-03-23T02:51:50;8.60;99.90
9311;DHT22;4694;52.464;13.480;2024-03-23T02:54:16;8.60;99.90
9311;DHT22;4694;52.464;13.480;2024-03-23T02:56:43;8.50;99.90
9311;DHT22;4694;52.464;13.480;2024-03-23T02:59:10;8.50;99.90
9311;DHT22;4694;52.464;13.480;2024-03-23T03:01:37;8.50;99.90
9311;DHT22;4694;52.464;13.480;2024-03-23T03:04:03;8.60;99.90
9311;DHT22;4694;52.464;13.480;2024-03-23T03:06:31;8.60;99.90
9311;DHT22;4694;52.464;13.480;2024-03-23T03:08:58;8.50;99.90
9311;DHT22;4694;52.464;13.480;2024-03-23T03:11:26;8.50;99.90
9311;DHT22;4694;52.464;13.480;2024-03-23T03:13:52;8.50;99.90
9311;DHT22;4694;52.464;13.480;2024-03-23T03:16:22;8.50;99.90
9311;DHT22;4694;52.464;13.480;2024-03-23T03:18:49;8.50;99.90
9311;DHT22;4694;52.464;13.480;2024-03-23T03:21:18;8.50;99.90
9311;DHT22;4694;52.464;13.480;2024-03-23T03:23:45;8.40;99.90
9311;DHT22;4694;52.464;13.480;2024-03-23T03:26:15;8.40;99.90
9311;DHT22;4694;52.464;13.480;2024-03-23T03:28:41;8.50;99.90
9311;DHT22;4694;52.464;13.480;2024-03-23T03:31:09;8.50;99.90
9311;DHT22;4694;52.464;13.480;2024-03-23T03:33:36;8.50;99.90
9311;DHT22;4694;52.464;13.480;2024-03-23T03:36:03;8.60;99.90
9311;DHT22;4694;52.464;13.480;2024-03-23T03:38:30;8.60;99.90
9311;DHT22;4694;52.464;13.480;2024-03-23T03:40:57;8.60;99.90
9311;DHT22;4694;52.464;13.480;2024-03-23T03:43:24;8.60;99.90
9311;DHT22;4694;52.464;13.480;2024-03-23T03:45:54;8.60;99.90
9311;DHT22;4694;52.464;13.480;2024-03-23T03:48:20;8.60;99.90
9311;DHT22;4694;52.464;13.480;2024-03-23T03:50:48;8.60;99.90
9311;DHT22;4694;52.464;13.480;2024-03-23T03:53:14;8.60;99.90
9311;DHT22;4694;52.464;13.480;2024-03-23T03:55:41;8.50;99.90
9311;DHT22;4694;52.464;13.480;2024-03-23T03:58:07;8.50;99.90
9311;DHT22;4694;52.464;13.480;2024-03-23T04:00:34;8.40;99.90
9311;DHT22;4694;52.464;13.480;2024-03-23T04:03:01;8.30;99.90
9311;DHT22;4694;52.464;13.480;2024-03-23T04:05:28;8.30;99.90
9311;DHT22;4694;52.464;13.480;2024-03-23T04:07:55;8.20;99.90
9311;DHT22;4694;52.464;13.480;2024-03-23T04:10:22;8.30;99.90
9311;DHT22;4694;52.464;13.480;2024-03-23T04:12:48;8.20;99.90
9311;DHT22;4694;52.464;13.480;2024-03-23T04:15:18;8.20;99.90
9311;DHT22;4694;52.464;13.480;2024-03-23T04:17:44;8.10;99.90
9311;DHT22;4694;52.464;13.480;2024-03-23T04:20:11;8.10;99.90
9311;DHT22;4694;52.464;13.480;2024-03-23T04:22:42;8.10;99.90
9311;DHT22;4694;52.464;13.480;2024-03-23T04:25:10;8.10;99.90
9311;DHT22;4694;52.464;13.480;2024-03-23T04:27:36;8.10;99.90
9311;DHT22;4694;52.464;13.480;2024-03-23T04:30:04;8.10;99.90
9311;DHT22;4694;52.464;13.480;2024-03-23T04:32:35;8.10;99.90
9311;DHT22;4694;52.464;13.480;2024-03-23T04:35:03;8.10;99.90
9311;DHT22;4694;52.464;13.480;2024-03-23T04:37:31;8.00;99.90
9311;DHT22;4694;52.464;13.480;2024-03-23T04:39:59;8.00;99.90
9311;DHT22;4694;52.464;13.480;2024-03-23T04:42:27;8.00;99.90
9311;DHT22;4694;52.464;13.480;2024-03-23T04:44:55;8.00;99.90
9311;DHT22;4694;52.464;13.480;2024-03-23T04:47:22;8.00;99.90
9311;DHT22;4694;52.464;13.480;2024-03-23T04:49:49;8.00;99.90
9311;DHT22;4694;52.464;13.480;2024-03-23T04:52:16;7.90;99.90
9311;DHT22;4694;52.464;13.480;2024-03-23T04:54:42;7.80;99.90
9311;DHT22;4694;52.464;13.480;2024-03-23T04:57:09;7.80;99.90
9311;DHT22;4694;52.464;13.480;2024-03-23T04:59:39;7.70;99.90
9311;DHT22;4694;52.464;13.480;2024-03-23T05:02:06;7.60;99.90
9311;DHT22;4694;52.464;13.480;2024-03-23T05:04:31;7.60;99.90
9311;DHT22;4694;52.464;13.480;2024-03-23T05:06:58;7.60;99.90
9311;DHT22;4694;52.464;13.480;2024-03-23T05:09:24;7.60;99.90
9311;DHT22;4694;52.464;13.480;2024-03-23T05:11:55;7.60;99.90
9311;DHT22;4694;52.464;13.480;2024-03-23T05:14:21;7.60;99.90
9311;DHT22;4694;52.464;13.480;2024-03-23T05:16:49;7.70;99.90
9311;DHT22;4694;52.464;13.480;2024-03-23T05:19:14;7.60;99.90
9311;DHT22;4694;52.464;13.480;2024-03-23T05:21:41;7.60;99.90
9311;DHT22;4694;52.464;13.480;2024-03-23T05:24:08;7.60;99.90
9311;DHT22;4694;52.464;13.480;2024-03-23T05:26:34;7.50;99.90
9311;DHT22;4694;52.464;13.480;2024-03-23T05:29:02;7.50;99.90
9311;DHT22;4694;52.464;13.480;2024-03-23T05:31:30;7.40;99.90
9311;DHT22;4694;52.464;13.480;2024-03-23T05:33:58;7.40;99.90
9311;DHT22;4694;52.464;13.480;2024-03-23T05:36:29;7.30;99.90
9311;DHT22;4694;52.464;13.480;2024-03-23T05:38:55;7.30;99.90
9311;DHT22;4694;52.464;13.480;2024-03-23T05:41:22;7.20;99.90
9311;DHT22;4694;52.464;13.480;2024-03-23T05:43:49;7.20;99.90
9311;DHT22;4694;52.464;13.480;2024-03-23T05:46:16;7.30;99.90
9311;DHT22;4694;52.464;13.480;2024-03-23T05:48:43;7.30;99.90
9311;DHT22;4694;52.464;13.480;2024-03-23T05:51:11;7.40;99.90
9311;DHT22;4694;52.464;13.480;2024-03-23T05:53:38;7.40;99.90
9311;DHT22;4694;52.464;13.480;2024-03-23T05:56:05;7.40;99.90
9311;DHT22;4694;52.464;13.480;2024-03-23T05:58:31;7.40;99.90
9311;DHT22;4694;52.464;13.480;2024-03-23T06:00:59;7.40;99.90
9311;DHT22;4694;52.464;13.480;2024-03-23T06:03:25;7.30;99.90
9311;DHT22;4694;52.464;13.480;2024-03-23T06:05:52;7.40;99.90
9311;DHT22;4694;52.464;13.480;2024-03-23T06:08:20;7.40;99.90
9311;DHT22;4694;52.464;13.480;2024-03-23T06:10:46;7.40;99.90
9311;DHT22;4694;52.464;13.480;2024-03-23T06:13:12;7.30;99.90
9311;DHT22;4694;52.464;13.480;2024-03-23T06:15:39;7.40;99.90
9311;DHT22;4694;52.464;13.480;2024-03-23T06:18:05;7.40;99.90
9311;DHT22;4694;52.464;13.480;2024-03-23T06:20:33;7.40;99.90
9311;DHT22;4694;52.464;13.480;2024-03-23T06:22:59;7.40;99.90
9311;DHT22;4694;52.464;13.480;2024-03-23T06:25:27;7.40;99.90
9311;DHT22;4694;52.464;13.480;2024-03-23T06:27:53;7.50;99.90
9311;DHT22;4694;52.464;13.480;2024-03-23T06:30:19;7.50;99.90
9311;DHT22;4694;52.464;13.480;2024-03-23T06:32:45;7.60;99.90
9311;DHT22;4694;52.464;13.480;2024-03-23T06:35:13;7.60;99.90
9311;DHT22;4694;52.464;13.480;2024-03-23T06:37:38;7.70;99.90
9311;DHT22;4694;52.464;13.480;2024-03-23T06:40:07;7.70;99.90
9311;DHT22;4694;52.464;13.480;2024-03-23T06:42:36;7.70;99.90
9311;DHT22;4694;52.464;13.480;2024-03-23T06:45:04;7.80;99.90
9311;DHT22;4694;52.464;13.480;2024-03-23T06:47:30;7.80;99.90
9311;DHT22;4694;52.464;13.480;2024-03-23T06:49:57;7.90;99.90
9311;DHT22;4694;52.464;13.480;2024-03-23T06:52:24;7.90;99.90
9311;DHT22;4694;52.464;13.480;2024-03-23T06:54:51;8.00;99.90
9311;DHT22;4694;52.464;13.480;2024-03-23T06:57:18;8.00;99.90
9311;DHT22;4694;52.464;13.480;2024-03-23T06:59:46;8.00;99.90
9311;DHT22;4694;52.464;13.480;2024-03-23T07:02:12;8.00;99.90
9311;DHT22;4694;52.464;13.480;2024-03-23T07:04:40;8.00;99.90
9311;DHT22;4694;52.464;13.480;2024-03-23T07:07:06;8.00;99.90
9311;DHT22;4694;52.464;13.480;2024-03-23T07:09:33;7.90;99.90
9311;DHT22;4694;52.464;13.480;2024-03-23T07:11:59;7.90;99.90
9311;DHT22;4694;52.464;13.480;2024-03-23T07:14:26;7.80;99.90
9311;DHT22;4694;52.464;13.480;2024-03-23T07:16:53;7.80;99.90
9311;DHT22;4694;52.464;13.480;2024-03-23T07:19:19;7.90;99.90
9311;DHT22;4694;52.464;13.480;2024-03-23T07:21:46;7.90;99.90
9311;DHT22;4694;52.464;13.480;2024-03-23T07:24:13;7.90;99.90
9311;DHT22;4694;52.464;13.480;2024-03-23T07:26:40;7.90;99.90
9311;DHT22;4694;52.464;13.480;2024-03-23T07:29:06;7.90;99.90
9311;DHT22;4694;52.464;13.480;2024-03-23T07:31:33;7.90;99.90
9311;DHT22;4694;52.464;13.480;2024-03-23T07:34:00;8.00;99.90
9311;DHT22;4694;52.464;13.480;2024-03-23T07:36:27;8.10;99.90
9311;DHT22;4694;52.464;13.480;2024-03-23T07:38:54;8.00;99.90
9311;DHT22;4694;52.464;13.480;2024-03-23T07:41:21;8.00;99.90
9311;DHT22;4694;52.464;13.480;2024-03-23T07:43:47;8.10;99.90
9311;DHT22;4694;52.464;13.480;2024-03-23T07:46:15;8.10;99.90
9311;DHT22;4694;52.464;13.480;2024-03-23T07:48:41;8.10;99.90
9311;DHT22;4694;52.464;13.480;2024-03-23T07:51:11;8.20;99.90
9311;DHT22;4694;52.464;13.480;2024-03-23T07:53:37;8.30;99.90
9311;DHT22;4694;52.464;13.480;2024-03-23T07:56:06;8.30;99.90
9311;DHT22;4694;52.464;13.480;2024-03-23T07:58:32;8.30;99.90
9311;DHT22;4694;52.464;13.480;2024-03-23T08:01:04;8.20;99.90
9311;DHT22;4694;52.464;13.480;2024-03-23T08:03:29;8.20;99.90
9311;DHT22;4694;52.464;13.480;2024-03-23T08:05:56;8.80;99.90
9311;DHT22;4694;52.464;13.480;2024-03-23T08:08:23;9.00;99.90
9311;DHT22;4694;52.464;13.480;2024-03-23T08:10:50;9.00;99.90
9311;DHT22;4694;52.464;13.480;2024-03-23T08:13:16;8.90;99.90
9311;DHT22;4694;52.464;13.480;2024-03-23T08:15:43;8.70;99.90
9311;DHT22;4694;52.464;13.480;2024-03-23T08:18:09;8.60;99.90
9311;DHT22;4694;52.464;13.480;2024-03-23T08:20:36;8.50;99.90
9311;DHT22;4694;52.464;13.480;2024-03-23T08:23:02;8.40;99.90
9311;DHT22;4694;52.464;13.480;2024-03-23T08:25:32;8.30;99.90
9311;DHT22;4694;52.464;13.480;2024-03-23T08:27:58;8.20;99.90
9311;DHT22;4694;52.464;13.480;2024-03-23T08:30:25;8.20;99.90
9311;DHT22;4694;52.464;13.480;2024-03-23T08:32:51;8.20;99.90
9311;DHT22;4694;52.464;13.480;2024-03-23T08:35:18;8.20;99.90
9311;DHT22;4694;52.464;13.480;2024-03-23T08:37:43;8.10;99.90
9311;DHT22;4694;52.464;13.480;2024-03-23T08:40:11;8.00;99.90
9311;DHT22;4694;52.464;13.480;2024-03-23T08:42:38;8.00;99.90
9311;DHT22;4694;52.464;13.480;2024-03-23T08:45:06;8.00;99.90
9311;DHT22;4694;52.464;13.480;2024-03-23T08:47:34;7.90;99.90
9311;DHT22;4694;52.464;13.480;2024-03-23T08:50:01;7.80;99.90
9311;DHT22;4694;52.464;13.480;2024-03-23T08:52:27;7.70;99.90
9311;DHT22;4694;52.464;13.480;2024-03-23T08:54:55;7.60;99.90
9311;DHT22;4694;52.464;13.480;2024-03-23T08:57:22;7.60;99.90
9311;DHT22;4694;52.464;13.480;2024-03-23T08:59:52;7.60;99.90
9311;DHT22;4694;52.464;13.480;2024-03-23T09:02:19;7.50;99.90
9311;DHT22;4694;52.464;13.480;2024-03-23T09:04:46;7.50;99.90
9311;DHT22;4694;52.464;13.480;2024-03-23T09:07:12;7.40;99.90
9311;DHT22;4694;52.464;13.480;2024-03-23T09:09:39;7.30;99.90
9311;DHT22;4694;52.464;13.480;2024-03-23T09:12:05;7.20;99.90
9311;DHT22;4694;52.464;13.480;2024-03-23T09:14:33;7.10;99.90
9311;DHT22;4694;52.464;13.480;2024-03-23T09:17:00;7.10;99.90
9311;DHT22;4694;52.464;13.480;2024-03-23T09:19:28;7.00;99.90
9311;DHT22;4694;52.464;13.480;2024-03-23T09:21:53;7.00;99.90
9311;DHT22;4694;52.464;13.480;2024-03-23T09:24:20;6.90;99.90
9311;DHT22;4694;52.464;13.480;2024-03-23T09:26:46;6.90;99.90
9311;DHT22;4694;52.464;13.480;2024-03-23T09:29:13;6.80;99.90
9311;DHT22;4694;52.464;13.480;2024-03-23T09:31:40;6.70;99.90
9311;DHT22;4694;52.464;13.480;2024-03-23T09:34:08;6.70;99.90
9311;DHT22;4694;52.464;13.480;2024-03-23T09:36:34;6.70;99.90
9311;DHT22;4694;52.464;13.480;2024-03-23T09:39:00;6.70;99.90
9311;DHT22;4694;52.464;13.480;2024-03-23T09:41:26;6.70;99.90
9311;DHT22;4694;52.464;13.480;2024-03-23T09:43:53;6.70;99.90
9311;DHT22;4694;52.464;13.480;2024-03-23T09:46:19;6.70;99.90
9311;DHT22;4694;52.464;13.480;2024-03-23T09:48:46;6.60;99.90
9311;DHT22;4694;52.464;13.480;2024-03-23T09:51:14;6.50;99.90
9311;DHT22;4694;52.464;13.480;2024-03-23T09:53:40;6.50;99.90
9311;DHT22;4694;52.464;13.480;2024-03-23T09:56:07;6.30;99.90
9311;DHT22;4694;52.464;13.480;2024-03-23T09:58:34;6.20;99.90
9311;DHT22;4694;52.464;13.480;2024-03-23T10:01:00;6.10;99.90
9311;DHT22;4694;52.464;13.480;2024-03-23T10:03:30;6.00;99.90
9311;DHT22;4694;52.464;13.480;2024-03-23T10:06:03;5.90;99.90
9311;DHT22;4694;52.464;13.480;2024-03-23T10:08:31;5.90;99.90
9311;DHT22;4694;52.464;13.480;2024-03-23T10:11:12;5.80;99.90
9311;DHT22;4694;52.464;13.480;2024-03-23T10:13:41;5.70;99.90
9311;DHT22;4694;52.464;13.480;2024-03-23T10:16:09;5.60;99.90
9311;DHT22;4694;52.464;13.480;2024-03-23T10:18:40;5.60;99.90
9311;DHT22;4694;52.464;13.480;2024-03-23T10:21:07;5.70;99.90
9311;DHT22;4694;52.464;13.480;2024-03-23T10:23:38;5.70;99.90
9311;DHT22;4694;52.464;13.480;2024-03-23T10:26:17;5.80;99.90
9311;DHT22;4694;52.464;13.480;2024-03-23T10:28:57;5.80;99.90
9311;DHT22;4694;52.464;13.480;2024-03-23T10:31:25;5.70;99.90
9311;DHT22;4694;52.464;13.480;2024-03-23T10:33:54;5.70;99.90
9311;DHT22;4694;52.464;13.480;2024-03-23T10:36:22;5.70;99.90
9311;DHT22;4694;52.464;13.480;2024-03-23T10:38:54;5.70;99.90
9311;DHT22;4694;52.464;13.480;2024-03-23T10:41:19;5.70;99.90
9311;DHT22;4694;52.464;13.480;2024-03-23T10:43:47;5.60;99.90
9311;DHT22;4694;52.464;13.480;2024-03-23T10:46:13;5.60;99.90
9311;DHT22;4694;52.464;13.480;2024-03-23T10:48:40;5.60;99.90
9311;DHT22;4694;52.464;13.480;2024-03-23T10:51:08;5.60;99.90
9311;DHT22;4694;52.464;13.480;2024-03-23T10:53:35;5.70;99.90
9311;DHT22;4694;52.464;13.480;2024-03-23T10:56:05;5.80;99.90
9311;DHT22;4694;52.464;13.480;2024-03-23T10:58:36;5.90;99.90
9311;DHT22;4694;52.464;13.480;2024-03-23T11:01:03;5.80;99.90
9311;DHT22;4694;52.464;13.480;2024-03-23T11:03:31;5.90;99.90
9311;DHT22;4694;52.464;13.480;2024-03-23T11:05:57;5.90;99.90
9311;DHT22;4694;52.464;13.480;2024-03-23T11:08:30;5.90;99.90
9311;DHT22;4694;52.464;13.480;2024-03-23T11:11:13;5.80;99.90
9311;DHT22;4694;52.464;13.480;2024-03-23T11:13:40;5.80;99.90
9311;DHT22;4694;52.464;13.480;2024-03-23T11:16:17;5.70;99.90
9311;DHT22;4694;52.464;13.480;2024-03-23T11:18:48;5.80;99.90
9311;DHT22;4694;52.464;13.480;2024-03-23T11:21:52;5.90;99.90
9311;DHT22;4694;52.464;13.480;2024-03-23T11:24:21;5.80;99.90
9311;DHT22;4694;52.464;13.480;2024-03-23T11:26:47;5.90;99.90
9311;DHT22;4694;52.464;13.480;2024-03-23T11:29:15;6.00;99.90
9311;DHT22;4694;52.464;13.480;2024-03-23T11:31:46;6.10;99.90
9311;DHT22;4694;52.464;13.480;2024-03-23T11:34:13;6.10;99.90
9311;DHT22;4694;52.464;13.480;2024-03-23T11:36:40;6.10;99.90
9311;DHT22;4694;52.464;13.480;2024-03-23T11:39:15;6.20;99.90
9311;DHT22;4694;52.464;13.480;2024-03-23T11:41:48;6.30;99.90
9311;DHT22;4694;52.464;13.480;2024-03-23T11:44:17;6.30;99.90
9311;DHT22;4694;52.464;13.480;2024-03-23T11:46:42;6.40;99.90
9311;DHT22;4694;52.464;13.480;2024-03-23T11:49:20;6.40;99.90
9311;DHT22;4694;52.464;13.480;2024-03-23T11:51:48;6.50;99.90
9311;DHT22;4694;52.464;13.480;2024-03-23T11:54:16;6.50;99.90
9311;DHT22;4694;52.464;13.480;2024-03-23T11:56:54;6.70;99.90
9311;DHT22;4694;52.464;13.480;2024-03-23T11:59:33;6.80;99.90
9311;DHT22;4694;52.464;13.480;2024-03-23T12:01:59;7.00;99.90
9311;DHT22;4694;52.464;13.480;2024-03-23T12:04:27;7.20;99.90
9311;DHT22;4694;52.464;13.480;2024-03-23T12:07:14;7.40;99.90
9311;DHT22;4694;52.464;13.480;2024-03-23T12:09:42;7.50;99.90
9311;DHT22;4694;52.464;13.480;2024-03-23T12:12:10;7.40;99.90
9311;DHT22;4694;52.464;13.480;2024-03-23T12:14:37;7.40;99.90
9311;DHT22;4694;52.464;13.480;2024-03-23T12:17:21;7.30;99.90
9311;DHT22;4694;52.464;13.480;2024-03-23T12:19:48;7.20;99.90
9311;DHT22;4694;52.464;13.480;2024-03-23T12:22:13;7.20;99.90
9311;DHT22;4694;52.464;13.480;2024-03-23T12:24:42;7.20;99.90
9311;DHT22;4694;52.464;13.480;2024-03-23T12:27:10;7.20;99.90
9311;DHT22;4694;52.464;13.480;2024-03-23T12:29:37;7.20;99.90
9311;DHT22;4694;52.464;13.480;2024-03-23T12:32:06;7.20;99.90
9311;DHT22;4694;52.464;13.480;2024-03-23T12:34:33;7.20;99.90
9311;DHT22;4694;52.464;13.480;2024-03-23T12:36:59;7.20;99.90
9311;DHT22;4694;52.464;13.480;2024-03-23T12:39:25;7.20;99.90
9311;DHT22;4694;52.464;13.480;2024-03-23T12:41:53;7.30;99.90
9311;DHT22;4694;52.464;13.480;2024-03-23T12:44:20;7.30;99.90
9311;DHT22;4694;52.464;13.480;2024-03-23T12:46:46;7.30;99.90
9311;DHT22;4694;52.464;13.480;2024-03-23T12:49:13;7.30;99.90
9311;DHT22;4694;52.464;13.480;2024-03-23T12:51:39;7.30;99.90
9311;DHT22;4694;52.464;13.480;2024-03-23T12:54:05;7.30;99.90
9311;DHT22;4694;52.464;13.480;2024-03-23T12:56:31;7.40;99.90
9311;DHT22;4694;52.464;13.480;2024-03-23T12:58:59;7.40;99.90
9311;DHT22;4694;52.464;13.480;2024-03-23T13:01:25;7.50;99.90
9311;DHT22;4694;52.464;13.480;2024-03-23T13:03:52;7.50;99.90
9311;DHT22;4694;52.464;13.480;2024-03-23T13:06:18;7.60;99.90
9311;DHT22;4694;52.464;13.480;2024-03-23T13:08:46;7.60;99.90
9311;DHT22;4694;52.464;13.480;2024-03-23T13:11:12;7.60;99.90
9311;DHT22;4694;52.464;13.480;2024-03-23T13:13:39;7.70;99.90
9311;DHT22;4694;52.464;13.480;2024-03-23T13:16:08;7.70;99.90
9311;DHT22;4694;52.464;13.480;2024-03-23T13:18:35;7.90;99.90
9311;DHT22;4694;52.464;13.480;2024-03-23T13:21:00;8.10;99.90
9311;DHT22;4694;52.464;13.480;2024-03-23T13:23:27;8.20;99.90
9311;DHT22;4694;52.464;13.480;2024-03-23T13:25:54;8.40;99.90
9311;DHT22;4694;52.464;13.480;2024-03-23T13:28:22;8.80;99.90
9311;DHT22;4694;52.464;13.480;2024-03-23T13:30:52;10.00;99.90
9311;DHT22;4694;52.464;13.480;2024-03-23T13:33:20;12.00;99.90
9311;DHT22;4694;52.464;13.480;2024-03-23T13:35:51;14.20;99.90
9311;DHT22;4694;52.464;13.480;2024-03-23T13:38:19;15.90;99.90
9311;DHT22;4694;52.464;13.480;2024-03-23T13:40:52;17.20;96.40
9311;DHT22;4694;52.464;13.480;2024-03-23T13:43:19;18.50;90.30
9311;DHT22;4694;52.464;13.480;2024-03-23T13:45:45;19.50;79.60
9311;DHT22;4694;52.464;13.480;2024-03-23T13:48:12;20.40;76.50
9311;DHT22;4694;52.464;13.480;2024-03-23T13:50:39;21.30;71.90
9311;DHT22;4694;52.464;13.480;2024-03-23T13:53:05;21.80;67.00
9311;DHT22;4694;52.464;13.480;2024-03-23T13:55:31;21.50;64.00
9311;DHT22;4694;52.464;13.480;2024-03-23T13:57:58;21.40;64.90
9311;DHT22;4694;52.464;13.480;2024-03-23T14:00:25;21.40;62.70
9311;DHT22;4694;52.464;13.480;2024-03-23T14:02:52;20.30;61.60
9311;DHT22;4694;52.464;13.480;2024-03-23T14:05:17;19.60;64.20
9311;DHT22;4694;52.464;13.480;2024-03-23T14:07:45;19.40;65.20
9311;DHT22;4694;52.464;13.480;2024-03-23T14:10:11;18.90;65.30
9311;DHT22;4694;52.464;13.480;2024-03-23T14:12:38;18.70;65.20
9311;DHT22;4694;52.464;13.480;2024-03-23T14:15:06;17.60;66.80
9311;DHT22;4694;52.464;13.480;2024-03-23T14:17:33;16.70;70.00
9311;DHT22;4694;52.464;13.480;2024-03-23T14:19:59;16.10;72.90
9311;DHT22;4694;52.464;13.480;2024-03-23T14:22:26;15.50;75.50
9311;DHT22;4694;52.464;13.480;2024-03-23T14:24:54;15.20;77.40
9311;DHT22;4694;52.464;13.480;2024-03-23T14:27:20;14.90;78.00
9311;DHT22;4694;52.464;13.480;2024-03-23T14:29:48;14.50;81.40
9311;DHT22;4694;52.464;13.480;2024-03-23T14:32:14;13.90;93.60
9311;DHT22;4694;52.464;13.480;2024-03-23T14:34:40;13.40;99.90
9311;DHT22;4694;52.464;13.480;2024-03-23T14:37:07;12.90;99.90
9311;DHT22;4694;52.464;13.480;2024-03-23T14:39:33;12.40;99.90
9311;DHT22;4694;52.464;13.480;2024-03-23T14:42:03;12.00;99.90
9311;DHT22;4694;52.464;13.480;2024-03-23T14:44:29;11.70;99.90
9311;DHT22;4694;52.464;13.480;2024-03-23T14:46:56;11.40;99.90
9311;DHT22;4694;52.464;13.480;2024-03-23T14:49:22;11.10;99.90
9311;DHT22;4694;52.464;13.480;2024-03-23T14:51:50;10.70;99.90
9311;DHT22;4694;52.464;13.480;2024-03-23T14:54:16;10.40;99.90
9311;DHT22;4694;52.464;13.480;2024-03-23T14:56:42;10.10;99.90
9311;DHT22;4694;52.464;13.480;2024-03-23T14:59:09;9.90;99.90
9311;DHT22;4694;52.464;13.480;2024-03-23T15:01:36;9.70;99.90
9311;DHT22;4694;52.464;13.480;2024-03-23T15:04:02;9.50;99.90
9311;DHT22;4694;52.464;13.480;2024-03-23T15:06:29;9.30;99.90
9311;DHT22;4694;52.464;13.480;2024-03-23T15:08:55;9.00;99.90
9311;DHT22;4694;52.464;13.480;2024-03-23T15:11:22;8.80;99.90
9311;DHT22;4694;52.464;13.480;2024-03-23T15:13:50;8.90;99.90
9311;DHT22;4694;52.464;13.480;2024-03-23T15:16:18;8.80;99.90
9311;DHT22;4694;52.464;13.480;2024-03-23T15:18:46;8.90;99.90
9311;DHT22;4694;52.464;13.480;2024-03-23T15:21:15;9.00;99.90
9311;DHT22;4694;52.464;13.480;2024-03-23T15:23:47;9.10;99.90
9311;DHT22;4694;52.464;13.480;2024-03-23T15:26:16;9.50;99.90
9311;DHT22;4694;52.464;13.480;2024-03-23T15:28:43;10.10;99.90
9311;DHT22;4694;52.464;13.480;2024-03-23T15:31:35;10.70;99.90
9311;DHT22;4694;52.464;13.480;2024-03-23T15:34:01;11.40;99.90
9311;DHT22;4694;52.464;13.480;2024-03-23T15:36:28;11.70;99.90
9311;DHT22;4694;52.464;13.480;2024-03-23T15:38:55;11.80;99.90
9311;DHT22;4694;52.464;13.480;2024-03-23T15:41:22;11.70;99.90
9311;DHT22;4694;52.464;13.480;2024-03-23T15:43:49;11.60;99.90
9311;DHT22;4694;52.464;13.480;2024-03-23T15:46:15;11.50;99.90
9311;DHT22;4694;52.464;13.480;2024-03-23T15:48:42;11.60;99.90
9311;DHT22;4694;52.464;13.480;2024-03-23T15:51:12;11.70;99.90
9311;DHT22;4694;52.464;13.480;2024-03-23T15:53:38;11.80;99.90
9311;DHT22;4694;52.464;13.480;2024-03-23T15:56:05;11.90;99.90
9311;DHT22;4694;52.464;13.480;2024-03-23T15:58:32;11.80;99.90
9311;DHT22;4694;52.464;13.480;2024-03-23T16:01:00;11.50;99.90
9311;DHT22;4694;52.464;13.480;2024-03-23T16:03:27;10.90;99.90
9311;DHT22;4694;52.464;13.480;2024-03-23T16:05:56;10.40;99.90
9311;DHT22;4694;52.464;13.480;2024-03-23T16:08:22;10.00;99.90
9311;DHT22;4694;52.464;13.480;2024-03-23T16:10:49;9.60;99.90
9311;DHT22;4694;52.464;13.480;2024-03-23T16:13:16;9.30;99.90
9311;DHT22;4694;52.464;13.480;2024-03-23T16:15:43;9.10;99.90
9311;DHT22;4694;52.464;13.480;2024-03-23T16:18:09;9.00;99.90
9311;DHT22;4694;52.464;13.480;2024-03-23T16:20:36;8.80;99.90
9311;DHT22;4694;52.464;13.480;2024-03-23T16:23:04;8.70;99.90
9311;DHT22;4694;52.464;13.480;2024-03-23T16:25:30;8.60;99.90
9311;DHT22;4694;52.464;13.480;2024-03-23T16:27:56;8.50;99.90
9311;DHT22;4694;52.464;13.480;2024-03-23T16:30:23;8.40;99.90
9311;DHT22;4694;52.464;13.480;2024-03-23T16:32:48;8.20;99.90
9311;DHT22;4694;52.464;13.480;2024-03-23T16:35:15;8.10;99.90
9311;DHT22;4694;52.464;13.480;2024-03-23T16:37:41;8.10;99.90
9311;DHT22;4694;52.464;13.480;2024-03-23T16:40:10;8.00;99.90
9311;DHT22;4694;52.464;13.480;2024-03-23T16:42:37;7.90;99.90
9311;DHT22;4694;52.464;13.480;2024-03-23T16:45:04;7.80;99.90
9311;DHT22;4694;52.464;13.480;2024-03-23T16:47:30;7.80;99.90
9311;DHT22;4694;52.464;13.480;2024-03-23T16:49:59;7.80;99.90
9311;DHT22;4694;52.464;13.480;2024-03-23T16:52:24;7.70;99.90
9311;DHT22;4694;52.464;13.480;2024-03-23T16:54:51;7.70;99.90